createdAt,value
2019-03-13T00:01:34.835Z,5.97
2019-03-13T00:04:05.713Z,6.00
2019-03-13T00:06:37.999Z,5.12
2019-03-13T00:09:13.187Z,6.70
2019-03-13T00:11:44.250Z,6.97
2019-03-13T00:14:14.870Z,7.75
2019-03-13T00:16:45.642Z,7.25
2019-03-13T00:19:16.546Z,7.85
2019-03-13T00:21:48.248Z,7.47
2019-03-13T00:24:18.989Z,8.33
2019-03-13T00:26:49.889Z,8.70
2019-03-13T00:29:20.488Z,8.58
2019-03-13T00:31:51.485Z,9.15
2019-03-13T00:34:22.267Z,9.35
2019-03-13T00:36:53.016Z,9.95
2019-03-13T00:39:27.058Z,10.98
2019-03-13T00:41:57.710Z,9.80
2019-03-13T00:44:28.479Z,10.15
2019-03-13T00:47:00.312Z,10.08
2019-03-13T00:49:31.143Z,9.45
2019-03-13T00:52:02.024Z,10.00
2019-03-13T00:54:32.758Z,9.33
2019-03-13T00:57:03.870Z,9.78
2019-03-13T00:59:34.440Z,8.70
2019-03-13T01:02:27.215Z,9.25
2019-03-13T01:05:25.783Z,9.18
2019-03-13T01:07:58.137Z,10.30
2019-03-13T01:10:28.872Z,8.95
2019-03-13T01:12:59.633Z,10.68
2019-03-13T01:15:30.431Z,9.13
2019-03-13T01:18:01.347Z,9.80
2019-03-13T01:20:32.015Z,10.75
2019-03-13T01:23:02.932Z,12.13
2019-03-13T01:25:33.667Z,11.43
2019-03-13T01:28:05.985Z,11.10
2019-03-13T01:30:48.536Z,11.73
2019-03-13T01:33:20.284Z,12.35
2019-03-13T01:35:56.025Z,12.33
2019-03-13T01:38:26.614Z,12.60
2019-03-13T01:40:57.523Z,11.65
2019-03-13T01:43:28.317Z,13.58
2019-03-13T01:46:00.162Z,12.78
2019-03-13T01:48:31.032Z,13.85
2019-03-13T01:51:02.107Z,12.65
2019-03-13T01:53:33.364Z,12.20
2019-03-13T01:56:03.943Z,12.07
2019-03-13T01:58:34.767Z,11.50
2019-03-13T02:01:07.291Z,11.55
2019-03-13T02:03:38.076Z,11.12
2019-03-13T02:06:09.226Z,11.00
2019-03-13T02:08:39.876Z,12.43
2019-03-13T02:11:11.026Z,11.88
2019-03-13T02:13:42.297Z,10.60
2019-03-13T02:16:12.854Z,10.95
2019-03-13T02:18:43.408Z,10.82
2019-03-13T02:21:15.734Z,12.78
2019-03-13T02:23:46.615Z,12.63
2019-03-13T02:26:18.769Z,12.35
2019-03-13T02:28:50.029Z,12.28
2019-03-13T02:31:20.787Z,11.45
2019-03-13T02:33:51.763Z,12.58
2019-03-13T02:36:22.352Z,12.90
2019-03-13T02:38:53.064Z,12.20
2019-03-13T02:41:24.362Z,11.97
2019-03-13T02:43:55.100Z,11.75
2019-03-13T02:46:25.799Z,11.63
2019-03-13T02:48:56.554Z,12.00
2019-03-13T02:51:27.250Z,11.93
2019-03-13T02:53:58.415Z,12.47
2019-03-13T02:56:30.757Z,12.37
2019-03-13T02:59:01.508Z,12.33
2019-03-13T03:01:51.027Z,11.05
2019-03-13T03:04:21.905Z,11.08
2019-03-13T03:06:52.740Z,10.65
2019-03-13T03:09:23.599Z,10.82
2019-03-13T03:11:54.399Z,11.28
2019-03-13T03:14:26.653Z,10.63
2019-03-13T03:16:57.509Z,11.12
2019-03-13T03:19:31.695Z,10.35
2019-03-13T03:22:02.451Z,10.85
2019-03-13T03:24:34.255Z,10.72
2019-03-13T03:27:04.904Z,10.32
2019-03-13T03:29:38.917Z,9.15
2019-03-13T03:32:09.118Z,11.33
2019-03-13T03:34:39.921Z,8.85
2019-03-13T03:37:10.588Z,10.55
2019-03-13T03:39:41.514Z,10.85
2019-03-13T03:42:12.112Z,10.68
2019-03-13T03:44:42.685Z,10.15
2019-03-13T03:47:13.139Z,10.48
2019-03-13T03:49:44.282Z,11.40
2019-03-13T03:52:14.893Z,11.95
2019-03-13T03:54:45.606Z,12.50
2019-03-13T03:57:16.539Z,12.03
2019-03-13T03:59:49.260Z,12.95
2019-03-13T04:02:19.995Z,12.95
2019-03-13T04:04:50.851Z,13.28
2019-03-13T04:07:21.678Z,12.10
2019-03-13T04:09:52.353Z,13.70
2019-03-13T04:12:23.077Z,13.35
2019-03-13T04:14:54.203Z,12.82
2019-03-13T04:17:24.929Z,13.83
2019-03-13T04:19:55.644Z,13.95
2019-03-13T04:22:26.308Z,12.18
2019-03-13T04:25:11.106Z,12.93
2019-03-13T04:27:41.953Z,12.25
2019-03-13T04:30:15.327Z,13.90
2019-03-13T04:32:47.042Z,12.98
2019-03-13T04:35:18.000Z,13.98
2019-03-13T04:37:48.819Z,13.05
2019-03-13T04:40:19.628Z,13.45
2019-03-13T04:42:50.364Z,14.30
2019-03-13T04:45:22.212Z,13.25
2019-03-13T04:47:52.816Z,12.55
2019-03-13T04:50:24.083Z,12.47
2019-03-13T04:52:55.377Z,12.47
2019-03-13T04:55:27.582Z,12.60
2019-03-13T04:57:58.685Z,12.80
2019-03-13T05:00:30.169Z,12.03
2019-03-13T05:03:01.193Z,12.88
2019-03-13T05:05:48.370Z,11.85
2019-03-13T05:08:26.604Z,13.32
2019-03-13T05:10:58.472Z,12.07
2019-03-13T05:13:29.206Z,13.00
2019-03-13T05:16:00.105Z,13.13
2019-03-13T05:18:30.887Z,12.40
2019-03-13T05:21:01.916Z,11.48
2019-03-13T05:23:32.695Z,12.80
2019-03-13T05:26:03.515Z,11.63
2019-03-13T05:28:34.429Z,11.35
2019-03-13T05:31:05.620Z,11.08
2019-03-13T05:33:36.707Z,11.55
2019-03-13T05:36:07.665Z,11.00
2019-03-13T05:38:38.547Z,11.50
2019-03-13T05:41:10.580Z,11.75
2019-03-13T05:43:41.554Z,10.43
2019-03-13T05:46:13.009Z,11.30
2019-03-13T05:48:43.775Z,11.30
2019-03-13T05:51:16.455Z,10.70
2019-03-13T05:53:48.839Z,9.70
2019-03-13T05:56:19.928Z,10.73
2019-03-13T05:58:52.116Z,11.00
2019-03-13T06:01:22.984Z,10.57
2019-03-13T06:03:53.685Z,10.90
2019-03-13T06:06:26.065Z,11.90
2019-03-13T06:08:57.564Z,11.80
2019-03-13T06:11:28.259Z,11.17
2019-03-13T06:13:59.086Z,11.00
2019-03-13T06:16:30.019Z,10.70
2019-03-13T06:19:00.758Z,9.97
2019-03-13T06:21:55.688Z,10.67
2019-03-13T06:24:26.673Z,10.40
2019-03-13T06:26:57.587Z,11.93
2019-03-13T06:29:31.590Z,10.40
2019-03-13T06:32:00.941Z,9.53
2019-03-13T06:34:31.618Z,10.90
2019-03-13T06:37:02.451Z,11.43
2019-03-13T06:39:33.138Z,12.23
2019-03-13T06:42:04.104Z,12.30
2019-03-13T06:44:35.215Z,11.60
2019-03-13T06:47:05.531Z,12.60
2019-03-13T06:49:36.633Z,11.43
2019-03-13T06:52:08.333Z,11.83
2019-03-13T06:54:38.866Z,12.00
2019-03-13T06:57:09.524Z,12.60
2019-03-13T06:59:57.697Z,12.43
2019-03-13T07:02:41.221Z,12.07
2019-03-13T07:05:30.491Z,11.23
2019-03-13T07:08:27.659Z,11.87
2019-03-13T07:11:15.181Z,11.30
2019-03-13T07:14:05.414Z,11.03
2019-03-13T07:17:07.228Z,9.40
2019-03-13T07:20:02.971Z,9.20
2019-03-13T07:22:50.789Z,9.50
2019-03-13T07:25:52.716Z,9.83
2019-03-13T07:28:41.826Z,9.53
2019-03-13T07:31:23.457Z,9.47
2019-03-13T07:34:08.071Z,9.70
2019-03-13T07:36:50.938Z,9.53
2019-03-13T07:40:10.791Z,8.87
2019-03-13T07:42:54.341Z,9.63
2019-03-13T07:45:43.474Z,9.50
2019-03-13T07:48:32.537Z,8.63
2019-03-13T07:51:11.168Z,8.17
2019-03-13T07:53:53.050Z,8.23
2019-03-13T07:56:45.116Z,9.57
2019-03-13T07:59:23.518Z,10.37
2019-03-13T08:02:13.392Z,10.00
2019-03-13T08:04:56.522Z,9.50
2019-03-13T08:07:51.118Z,10.67
2019-03-13T08:10:40.588Z,9.80
2019-03-13T08:13:29.750Z,9.00
2019-03-13T08:16:17.594Z,9.73
2019-03-13T08:19:05.535Z,9.03
2019-03-13T08:21:53.771Z,9.70
2019-03-13T08:24:46.222Z,8.47
2019-03-13T08:27:38.518Z,9.17
2019-03-13T08:30:43.502Z,9.40
2019-03-13T08:33:45.162Z,9.40
2019-03-13T08:36:40.510Z,9.30
2019-03-13T08:39:16.914Z,10.00
2019-03-13T08:42:04.914Z,10.90
2019-03-13T08:44:56.917Z,8.77
2019-03-13T08:47:35.526Z,9.00
2019-03-13T08:50:31.263Z,9.10
2019-03-13T08:53:19.824Z,9.73
2019-03-13T08:55:58.324Z,9.13
2019-03-13T08:58:50.264Z,8.70
2019-03-13T09:01:39.632Z,8.40
2019-03-13T09:04:26.250Z,9.30
2019-03-13T09:07:17.876Z,9.50
2019-03-13T09:09:54.457Z,8.20
2019-03-13T09:12:46.559Z,7.63
2019-03-13T09:15:36.151Z,8.00
2019-03-13T09:18:43.648Z,8.93
2019-03-13T09:21:26.464Z,8.80
2019-03-13T09:24:12.972Z,8.37
2019-03-13T09:26:59.474Z,8.23
2019-03-13T09:29:49.268Z,7.60
2019-03-13T09:32:45.909Z,7.07
2019-03-13T09:35:46.984Z,9.17
2019-03-13T09:38:44.934Z,8.40
2019-03-13T09:41:33.170Z,8.83
2019-03-13T09:44:29.295Z,7.30
2019-03-13T09:47:08.657Z,7.97
2019-03-13T09:49:58.122Z,7.57
2019-03-13T09:52:55.802Z,8.57
2019-03-13T09:55:44.042Z,8.30
2019-03-13T09:58:40.667Z,7.90
2019-03-13T10:01:28.842Z,8.13
2019-03-13T10:04:17.181Z,7.90
2019-03-13T10:07:01.906Z,8.00
2019-03-13T10:09:52.428Z,7.70
2019-03-13T10:12:33.397Z,7.77
2019-03-13T10:15:22.577Z,7.97
2019-03-13T10:18:19.525Z,7.97
2019-03-13T10:21:07.444Z,7.20
2019-03-13T10:24:07.296Z,8.00
2019-03-13T10:27:02.912Z,7.63
2019-03-13T10:29:55.021Z,6.93
2019-03-13T10:32:42.870Z,8.53
2019-03-13T10:35:30.794Z,9.10
2019-03-13T10:38:32.494Z,8.07
2019-03-13T10:41:12.402Z,8.20
2019-03-13T10:44:01.568Z,8.27
2019-03-13T10:46:47.180Z,9.07
2019-03-13T10:49:36.858Z,7.70
2019-03-13T10:52:30.821Z,9.13
2019-03-13T10:55:08.460Z,8.80
2019-03-13T10:58:00.567Z,8.63
2019-03-13T11:00:58.946Z,8.27
2019-03-13T11:03:54.269Z,8.90
2019-03-13T11:06:54.970Z,8.73
2019-03-13T11:09:26.683Z,8.30
2019-03-13T11:12:02.732Z,8.83
2019-03-13T11:14:50.978Z,9.90
2019-03-13T11:17:40.651Z,8.70
2019-03-13T11:20:38.214Z,9.80
2019-03-13T11:23:43.663Z,9.80
2019-03-13T11:26:32.011Z,8.97
2019-03-13T11:29:22.724Z,9.83
2019-03-13T11:32:12.217Z,10.20
2019-03-13T11:34:49.768Z,10.37
2019-03-13T11:37:39.258Z,9.17
2019-03-13T11:40:23.214Z,9.87
2019-03-13T11:43:07.742Z,8.93
2019-03-13T11:45:54.143Z,9.73
2019-03-13T11:48:43.430Z,9.50
2019-03-13T11:51:49.169Z,9.77
2019-03-13T11:54:36.213Z,9.83
2019-03-13T11:57:21.802Z,9.60
2019-03-13T12:00:02.063Z,8.47
2019-03-13T12:02:57.667Z,9.60
2019-03-13T12:05:53.892Z,9.50
2019-03-13T12:08:41.757Z,9.20
2019-03-13T12:11:40.436Z,9.13
2019-03-13T12:14:36.253Z,9.57
2019-03-13T12:17:23.978Z,9.17
2019-03-13T12:20:06.391Z,8.83
2019-03-13T12:23:14.198Z,10.20
2019-03-13T12:26:03.510Z,7.90
2019-03-13T12:28:46.909Z,7.53
2019-03-13T12:31:54.920Z,7.50
2019-03-13T12:35:02.809Z,8.50
2019-03-13T12:37:55.574Z,8.43
2019-03-13T12:40:38.636Z,7.93
2019-03-13T12:43:25.753Z,9.13
2019-03-13T12:46:15.715Z,7.43
2019-03-13T12:49:08.622Z,7.47
2019-03-13T12:51:53.225Z,7.83
2019-03-13T12:54:58.366Z,7.80
2019-03-13T12:57:54.397Z,7.77
2019-03-13T13:00:33.420Z,7.23
2019-03-13T13:03:17.175Z,7.40
2019-03-13T13:06:02.052Z,7.30
2019-03-13T13:09:03.886Z,6.50
2019-03-13T13:11:53.364Z,7.33
2019-03-13T13:14:42.335Z,7.60
2019-03-13T13:17:35.791Z,6.83
2019-03-13T13:20:07.392Z,7.33
2019-03-13T13:22:37.942Z,7.70
2019-03-13T13:25:09.727Z,6.60
2019-03-13T13:27:40.388Z,7.13
2019-03-13T13:30:12.146Z,7.33
2019-03-13T13:32:43.008Z,6.30
2019-03-13T13:35:14.058Z,6.77
2019-03-13T13:37:44.735Z,5.43
2019-03-13T13:40:15.673Z,6.37
2019-03-13T13:42:46.476Z,7.23
2019-03-13T13:45:47.365Z,7.00
2019-03-13T13:48:17.854Z,5.80
2019-03-13T13:50:48.301Z,6.70
2019-03-13T13:53:18.819Z,5.90
2019-03-13T13:55:49.472Z,7.07
2019-03-13T13:58:20.026Z,5.90
2019-03-13T14:00:50.676Z,7.17
2019-03-13T14:03:23.030Z,6.30
2019-03-13T14:05:53.789Z,6.53
2019-03-13T14:08:25.459Z,6.70
2019-03-13T14:10:56.290Z,6.97
2019-03-13T14:13:27.396Z,6.10
2019-03-13T14:15:58.244Z,6.17
2019-03-13T14:18:29.437Z,6.27
2019-03-13T14:21:00.181Z,6.63
2019-03-13T14:23:30.774Z,6.60
2019-03-13T14:26:01.516Z,7.20
2019-03-13T14:28:31.969Z,7.23
2019-03-13T14:31:03.598Z,7.80
2019-03-13T14:33:33.956Z,6.80
2019-03-13T14:36:04.657Z,7.33
2019-03-13T14:38:35.149Z,7.43
2019-03-13T14:41:06.248Z,6.97
2019-03-13T14:43:36.902Z,7.30
2019-03-13T14:46:07.712Z,6.20
2019-03-13T14:48:38.360Z,7.03
2019-03-13T14:51:09.117Z,6.90
2019-03-13T14:53:40.211Z,7.83
2019-03-13T14:56:10.940Z,7.60
2019-03-13T14:58:41.414Z,7.20
2019-03-13T15:01:12.168Z,7.40
2019-03-13T15:03:42.743Z,7.20
2019-03-13T15:06:13.416Z,7.60
2019-03-13T15:08:44.274Z,6.43
2019-03-13T15:11:15.138Z,7.33
2019-03-13T15:13:45.698Z,8.20
2019-03-13T15:16:16.368Z,9.10
2019-03-13T15:18:47.342Z,7.63
2019-03-13T15:21:18.019Z,8.00
2019-03-13T15:23:48.908Z,7.40
2019-03-13T15:26:19.574Z,7.47
2019-03-13T15:28:50.113Z,7.50
2019-03-13T15:31:21.182Z,7.53
2019-03-13T15:33:52.114Z,8.63
2019-03-13T15:36:22.777Z,7.47
2019-03-13T15:38:54.286Z,8.57
2019-03-13T15:41:24.948Z,8.87
2019-03-13T15:43:55.818Z,9.87
2019-03-13T15:46:26.603Z,8.00
2019-03-13T15:48:57.418Z,8.30
2019-03-13T15:51:27.987Z,7.10
2019-03-13T15:53:59.826Z,7.80
2019-03-13T15:56:30.791Z,14.83
2019-03-13T15:59:01.994Z,11.70
2019-03-13T16:01:32.428Z,7.40
2019-03-13T16:04:03.251Z,11.27
2019-03-13T16:06:35.743Z,10.20
2019-03-13T16:09:08.305Z,7.87
2019-03-13T16:11:38.850Z,8.80
2019-03-13T16:14:10.874Z,8.20
2019-03-13T16:16:41.797Z,9.03
2019-03-13T16:19:12.271Z,10.80
2019-03-13T16:21:44.200Z,10.50
2019-03-13T16:24:14.568Z,12.20
2019-03-13T16:26:45.021Z,8.83
2019-03-13T16:29:17.255Z,9.17
2019-03-13T16:31:48.274Z,8.63
2019-03-13T16:34:18.730Z,7.90
2019-03-13T16:36:49.558Z,7.90
2019-03-13T16:39:20.077Z,8.00
2019-03-13T16:41:51.303Z,8.37
2019-03-13T16:44:22.301Z,8.00
2019-03-13T16:49:58.765Z,7.93
2019-03-13T16:52:29.390Z,7.80
2019-03-13T16:54:59.813Z,7.53
2019-03-13T16:57:30.776Z,8.90
2019-03-13T17:00:01.645Z,9.28
2019-03-13T17:02:32.740Z,10.83
2019-03-13T17:05:03.277Z,12.63
2019-03-13T17:07:33.931Z,11.93
2019-03-13T17:10:05.746Z,10.10
2019-03-13T17:12:37.193Z,14.03
2019-03-13T17:15:10.260Z,8.80
2019-03-13T17:17:41.045Z,9.50
2019-03-13T17:20:14.288Z,12.00
2019-03-13T17:22:46.071Z,9.27
2019-03-13T17:25:19.319Z,10.63
2019-03-13T17:27:50.275Z,13.17
2019-03-13T17:30:22.541Z,13.53
2019-03-13T17:32:53.366Z,11.37
2019-03-13T17:35:24.008Z,10.50
2019-03-13T17:37:54.574Z,11.00
2019-03-13T17:40:25.981Z,11.17
2019-03-13T17:42:56.831Z,11.47
2019-03-13T17:45:27.766Z,17.05
2019-03-13T17:47:59.293Z,13.85
2019-03-13T17:50:30.240Z,13.05
2019-03-13T17:53:01.076Z,11.12
2019-03-13T17:55:31.773Z,12.40
2019-03-13T17:58:05.783Z,21.33
2019-03-13T18:00:42.817Z,16.17
2019-03-13T18:03:13.772Z,18.42
2019-03-13T18:05:44.224Z,22.17
2019-03-13T18:08:15.204Z,13.28
2019-03-13T18:10:45.984Z,12.60
2019-03-13T18:13:16.782Z,12.05
2019-03-13T18:15:47.835Z,15.00
2019-03-13T18:18:20.311Z,15.13
2019-03-13T18:20:51.432Z,15.65
2019-03-13T18:23:23.519Z,19.20
2019-03-13T18:25:55.374Z,14.63
2019-03-13T18:28:28.377Z,12.45
2019-03-13T18:31:01.803Z,10.55
2019-03-13T18:33:31.601Z,10.82
2019-03-13T18:36:02.378Z,10.60
2019-03-13T18:38:33.627Z,12.03
2019-03-13T18:41:04.153Z,12.03
2019-03-13T18:43:34.790Z,13.40
2019-03-13T18:46:06.972Z,14.33
2019-03-13T18:48:39.004Z,15.18
2019-03-13T18:51:13.512Z,14.65
2019-03-13T18:53:43.961Z,11.20
2019-03-13T18:56:15.030Z,13.43
2019-03-13T18:58:45.877Z,14.65
2019-03-13T19:01:16.874Z,12.23
2019-03-13T19:03:47.550Z,14.47
2019-03-13T19:06:18.128Z,13.20
2019-03-13T19:08:49.628Z,25.02
2019-03-13T19:11:20.424Z,17.60
2019-03-13T19:13:53.146Z,15.00
2019-03-13T19:16:23.882Z,11.10
2019-03-13T19:18:55.020Z,12.85
2019-03-13T19:21:25.857Z,12.58
2019-03-13T19:23:56.498Z,13.78
2019-03-13T19:26:27.122Z,12.23
2019-03-13T19:29:01.249Z,14.70
2019-03-13T19:31:30.602Z,13.72
2019-03-13T19:34:01.286Z,12.35
2019-03-13T19:36:32.262Z,17.27
2019-03-13T19:39:03.530Z,14.55
2019-03-13T19:41:35.930Z,18.15
2019-03-13T19:44:06.608Z,12.43
2019-03-13T19:46:37.479Z,10.75
2019-03-13T19:49:08.422Z,13.83
2019-03-13T19:51:40.232Z,14.75
2019-03-13T19:54:11.985Z,12.85
2019-03-13T19:56:43.057Z,10.60
2019-03-13T19:59:14.519Z,12.82
2019-03-13T20:01:45.372Z,15.83
2019-03-13T20:04:16.128Z,8.73
2019-03-13T20:06:47.289Z,25.17
2019-03-13T20:09:17.896Z,21.35
2019-03-13T20:11:52.914Z,15.10
2019-03-13T20:14:23.741Z,11.75
2019-03-13T20:16:54.097Z,13.25
2019-03-13T20:19:24.745Z,11.65
2019-03-13T20:21:55.855Z,14.73
2019-03-13T20:24:26.562Z,18.73
2019-03-13T20:26:57.412Z,13.30
2019-03-13T20:29:27.830Z,9.85
2019-03-13T20:31:58.296Z,15.30
2019-03-13T20:34:29.156Z,18.05
2019-03-13T20:36:59.601Z,24.50
2019-03-13T20:39:30.305Z,19.23
2019-03-13T20:42:00.681Z,15.43
2019-03-13T20:44:31.380Z,14.30
2019-03-13T20:47:01.954Z,11.83
2019-03-13T20:49:32.702Z,13.18
2019-03-13T20:52:04.359Z,11.85
2019-03-13T20:54:35.059Z,12.30
2019-03-13T20:57:05.740Z,12.40
2019-03-13T20:59:36.525Z,12.90
2019-03-13T21:02:07.580Z,11.05
2019-03-13T21:04:38.767Z,10.10
2019-03-13T21:07:09.414Z,9.85
2019-03-13T21:09:39.758Z,9.18
2019-03-13T21:12:10.710Z,8.55
2019-03-13T21:14:41.103Z,8.35
2019-03-13T21:17:11.635Z,8.48
2019-03-13T21:19:43.262Z,8.15
2019-03-13T21:22:13.691Z,8.80
2019-03-13T21:24:44.429Z,10.93
2019-03-13T21:27:15.126Z,10.88
2019-03-13T21:29:45.482Z,11.63
2019-03-13T21:32:16.371Z,10.95
2019-03-13T21:34:47.447Z,10.58
2019-03-13T21:37:17.916Z,9.13
2019-03-13T21:39:48.532Z,10.28
2019-03-13T21:42:21.360Z,9.30
2019-03-13T21:44:52.217Z,8.30
2019-03-13T21:47:22.875Z,9.58
2019-03-13T21:49:53.601Z,9.30
2019-03-13T21:52:24.483Z,11.33
2019-03-13T21:54:55.229Z,11.20
2019-03-13T21:57:26.312Z,10.98
2019-03-13T21:59:57.086Z,12.40
2019-03-13T22:02:32.891Z,10.80
2019-03-13T22:05:00.381Z,11.55
2019-03-13T22:07:31.325Z,9.53
2019-03-13T22:10:03.782Z,11.30
2019-03-13T22:12:34.460Z,11.55
2019-03-13T22:15:05.220Z,11.70
2019-03-13T22:17:36.118Z,11.17
2019-03-13T22:20:07.235Z,11.12
2019-03-13T22:22:39.177Z,10.03
2019-03-13T22:25:10.366Z,12.10
2019-03-13T22:27:41.221Z,11.40
2019-03-13T22:30:15.169Z,10.55
2019-03-13T22:32:45.902Z,11.08
2019-03-13T22:35:17.435Z,9.70
2019-03-13T22:37:48.384Z,11.68
2019-03-13T22:40:19.171Z,10.95
2019-03-13T22:42:51.239Z,11.30
2019-03-13T22:45:22.534Z,10.90
2019-03-13T22:47:53.592Z,13.58
2019-03-13T22:50:24.214Z,11.93
2019-03-13T22:52:55.094Z,12.07
2019-03-13T22:55:26.296Z,10.70
2019-03-13T22:57:57.090Z,11.80
2019-03-13T23:00:52.598Z,8.30
2019-03-13T23:03:23.824Z,10.77
2019-03-13T23:05:55.116Z,10.98
2019-03-13T23:08:26.034Z,8.48
2019-03-13T23:10:56.838Z,9.78
2019-03-13T23:13:28.167Z,8.40
2019-03-13T23:16:00.230Z,9.55
2019-03-13T23:18:31.228Z,9.78
2019-03-13T23:21:04.286Z,10.72
2019-03-13T23:23:35.038Z,9.43
2019-03-13T23:26:05.953Z,9.93
2019-03-13T23:28:36.802Z,7.83
2019-03-13T23:31:10.037Z,9.93
2019-03-13T23:33:40.826Z,8.50
2019-03-13T23:36:11.426Z,9.43
2019-03-13T23:38:43.311Z,7.05
2019-03-13T23:41:14.661Z,6.97
2019-03-13T23:43:45.647Z,7.72
2019-03-13T23:46:16.395Z,7.65
2019-03-13T23:48:47.094Z,7.00
2019-03-13T23:51:18.108Z,8.45
2019-03-13T23:53:49.660Z,8.53
2019-03-13T23:56:20.449Z,8.58
2019-03-13T23:58:51.389Z,8.73
